Time;durP1;ratioP1;P1;durP2;ratioP2;P2;SDS_P1;SDS_P2;PMS_P1;PMS_P2;Temp;Humidity;BMP_temperature;BMP_pressure;BME280_temperature;BME280_humidity;BME280_pressure;Samples;Min_cycle;Max_cycle;Signal;HPM_P1;HPM_P2
2022/01/24 00:00:24;;;;;;;6.70;3.78;;;6.30;99.90;;;;;;5074940;28;20064;-74
2022/01/24 00:02:50;;;;;;;6.57;3.53;;;6.40;99.90;;;;;;5094006;28;20036;-74
2022/01/24 00:05:18;;;;;;;7.57;4.03;;;6.40;99.90;;;;;;5073676;28;20492;-74
2022/01/24 00:07:43;;;;;;;7.90;4.07;;;6.30;99.90;;;;;;5074542;28;20585;-74
2022/01/24 00:10:15;;;;;;;8.65;4.30;;;6.30;99.90;;;;;;5092708;28;20132;-74
2022/01/24 00:17:38;;;;;;;7.40;4.18;;;6.30;99.90;;;;;;5091654;28;20040;-74
2022/01/24 00:28:20;;;;;;;9.52;4.63;;;6.30;99.90;;;;;;5072989;28;20457;-74
2022/01/24 00:30:46;;;;;;;8.10;4.47;;;6.30;99.90;;;;;;5058468;28;20777;-74
2022/01/24 00:33:12;;;;;;;7.68;4.55;;;6.30;99.90;;;;;;5092831;28;20036;-74
2022/01/24 00:35:37;;;;;;;8.77;4.90;;;6.20;99.90;;;;;;5075462;28;20052;-74
2022/01/24 00:38:03;;;;;;;8.70;5.28;;;6.20;99.90;;;;;;5075834;28;20040;-74
2022/01/24 00:40:33;;;;;;;10.40;4.93;;;6.20;99.90;;;;;;5075974;28;20047;-74
2022/01/24 00:43:00;;;;;;;8.20;5.32;;;6.30;99.90;;;;;;5061362;28;20436;-74
2022/01/24 00:45:33;;;;;;;8.02;4.50;;;6.30;99.90;;;;;;5056148;28;20051;-74
2022/01/24 00:55:54;;;;;;;10.05;4.75;;;6.30;99.90;;;;;;5091659;28;20051;-74
2022/01/24 00:58:20;;;;;;;9.15;5.18;;;6.30;99.90;;;;;;5092448;28;20044;-74
2022/01/24 01:00:45;;;;;;;10.43;4.78;;;6.20;99.90;;;;;;5091260;28;20055;-74
2022/01/24 01:03:11;;;;;;;9.57;5.05;;;6.30;99.90;;;;;;5092276;28;20097;-73
2022/01/24 01:18:49;;;;;;;8.13;4.70;;;6.40;99.90;;;;;;5092096;28;20043;-73
2022/01/24 01:21:15;;;;;;;9.35;4.88;;;6.30;99.90;;;;;;5091149;28;20385;-73
2022/01/24 01:23:55;;;;;;;9.23;4.93;;;6.20;99.90;;;;;;5067046;28;20514;-73
2022/01/24 01:26:31;;;;;;;10.45;5.40;;;6.20;99.90;;;;;;5062369;28;20047;-73
2022/01/24 01:29:01;;;;;;;8.13;4.90;;;6.10;99.90;;;;;;5091983;28;20044;-74
2022/01/24 01:31:39;;;;;;;9.23;5.15;;;6.30;99.90;;;;;;5091616;28;20066;-73
2022/01/24 01:34:21;;;;;;;8.65;4.63;;;6.40;99.90;;;;;;5074858;28;20036;-73
2022/01/24 01:55:56;;;;;;;10.32;6.32;;;6.00;99.90;;;;;;5073178;28;20128;-74
2022/01/24 01:58:23;;;;;;;10.93;6.45;;;5.90;99.90;;;;;;5074506;28;20540;-74
2022/01/24 02:00:55;;;;;;;10.20;6.30;;;6.10;99.90;;;;;;5090479;28;20048;-74
2022/01/24 02:03:22;;;;;;;9.95;6.32;;;6.00;99.90;;;;;;5074066;28;20039;-73
2022/01/24 02:05:48;;;;;;;10.13;5.97;;;6.00;99.90;;;;;;5090293;28;20052;-73
2022/01/24 02:08:13;;;;;;;10.80;6.60;;;6.00;99.90;;;;;;5069529;28;20113;-74
2022/01/24 02:10:41;;;;;;;10.73;6.68;;;5.90;99.90;;;;;;5054328;28;20037;-74
2022/01/24 02:13:07;;;;;;;10.55;6.43;;;5.90;99.90;;;;;;5091288;28;20040;-74
2022/01/24 02:15:58;;;;;;;10.32;6.45;;;5.80;99.90;;;;;;5073216;28;20039;-74
2022/01/24 02:18:34;;;;;;;10.57;6.50;;;5.80;99.90;;;;;;5089348;28;20040;-74
2022/01/24 02:21:11;;;;;;;10.80;6.78;;;5.70;99.90;;;;;;5090341;28;20035;-73
2022/01/24 02:23:45;;;;;;;11.75;7.13;;;5.80;99.90;;;;;;5089916;28;20115;-73
2022/01/24 02:26:18;;;;;;;10.55;6.55;;;5.70;99.90;;;;;;5074456;28;20388;-73
2022/01/24 02:33:49;;;;;;;11.35;6.68;;;5.70;99.90;;;;;;5089764;28;20087;-73
2022/01/24 02:36:23;;;;;;;12.98;7.10;;;5.70;99.90;;;;;;5091277;28;20044;-74
2022/01/24 02:49:30;;;;;;;12.00;6.95;;;5.70;99.90;;;;;;5089108;28;20109;-73
2022/01/24 02:52:12;;;;;;;11.70;7.75;;;5.70;99.90;;;;;;5089825;28;20036;-73
2022/01/24 02:54:39;;;;;;;10.95;7.15;;;5.70;99.90;;;;;;5089691;28;20058;-73
2022/01/24 02:57:06;;;;;;;11.20;7.40;;;5.70;99.90;;;;;;5091112;28;20046;-73
2022/01/24 02:59:33;;;;;;;11.63;6.95;;;5.70;99.90;;;;;;5089981;28;20040;-73
2022/01/24 03:01:59;;;;;;;10.80;6.53;;;5.70;99.90;;;;;;5072441;28;20048;-73
2022/01/24 03:04:25;;;;;;;11.82;6.63;;;5.80;99.90;;;;;;5073492;28;20176;-73
2022/01/24 03:06:51;;;;;;;11.57;6.65;;;5.90;99.90;;;;;;5073769;28;20036;-73
2022/01/24 03:09:17;;;;;;;10.73;6.60;;;5.80;99.90;;;;;;5088895;28;20032;-73
2022/01/24 03:12:06;;;;;;;11.55;7.22;;;5.80;99.90;;;;;;5089918;28;20040;-74
2022/01/24 03:14:35;;;;;;;10.77;7.20;;;5.70;99.90;;;;;;5073247;28;20506;-73
2022/01/24 03:17:02;;;;;;;11.52;7.10;;;5.70;99.90;;;;;;5090738;28;20681;-73
2022/01/24 03:19:28;;;;;;;11.98;7.95;;;5.70;99.90;;;;;;5089004;28;20048;-73
2022/01/24 03:21:54;;;;;;;11.38;7.18;;;5.70;99.90;;;;;;5089451;28;20047;-73
2022/01/24 03:24:19;;;;;;;12.07;7.07;;;5.70;99.90;;;;;;5089831;28;20044;-73
2022/01/24 03:26:45;;;;;;;12.38;7.88;;;5.80;99.90;;;;;;5089395;28;20109;-73
2022/01/24 03:29:11;;;;;;;11.93;7.65;;;5.80;99.90;;;;;;5090996;28;20044;-73
2022/01/24 03:31:38;;;;;;;12.52;7.90;;;5.70;99.90;;;;;;5093003;28;20032;-73
2022/01/24 03:34:03;;;;;;;12.70;8.43;;;5.70;99.90;;;;;;5077136;28;20036;-73
2022/01/24 03:36:30;;;;;;;13.32;8.20;;;5.70;99.90;;;;;;5093394;28;20089;-73
2022/01/24 03:38:55;;;;;;;13.23;9.00;;;5.80;99.90;;;;;;5077202;28;20055;-73
2022/01/24 03:41:22;;;;;;;14.18;8.50;;;5.70;99.90;;;;;;5093277;28;20035;-73
2022/01/24 03:43:47;;;;;;;14.65;9.43;;;5.90;99.90;;;;;;5077527;28;20492;-73
2022/01/24 03:48:53;;;;;;;15.77;9.82;;;5.80;99.90;;;;;;5092380;28;20051;-73
2022/01/24 03:51:20;;;;;;;14.68;9.48;;;5.80;99.90;;;;;;5076431;28;20508;-73
2022/01/24 03:53:46;;;;;;;16.00;10.38;;;5.80;99.90;;;;;;5076042;28;20397;-73
2022/01/24 03:56:12;;;;;;;15.32;9.30;;;5.80;99.90;;;;;;5092622;28;20032;-73
2022/01/24 03:58:38;;;;;;;14.75;9.80;;;5.80;99.90;;;;;;5094014;28;20048;-73
2022/01/24 04:01:06;;;;;;;16.08;9.70;;;5.70;99.90;;;;;;5090457;28;20063;-73
2022/01/24 04:03:33;;;;;;;15.48;9.07;;;5.70;99.90;;;;;;5076441;28;20044;-73
2022/01/24 04:05:58;;;;;;;15.25;9.35;;;5.80;99.90;;;;;;5088837;28;20081;-73
2022/01/24 04:08:24;;;;;;;14.88;9.57;;;6.00;99.90;;;;;;5092443;28;20123;-73
2022/01/24 04:10:53;;;;;;;17.08;10.63;;;6.10;99.90;;;;;;5090776;28;20040;-73
2022/01/24 04:13:41;;;;;;;15.68;10.07;;;5.90;99.90;;;;;;5076812;28;20093;-73
2022/01/24 04:21:28;;;;;;;15.48;9.35;;;5.80;99.90;;;;;;5092597;28;20054;-73
2022/01/24 04:26:29;;;;;;;16.45;10.57;;;6.00;99.90;;;;;;5093135;28;20058;-73
2022/01/24 04:28:55;;;;;;;17.85;11.13;;;5.90;99.90;;;;;;5092813;28;20085;-73
2022/01/24 04:31:22;;;;;;;17.17;10.57;;;5.90;99.90;;;;;;5092347;28;20035;-74
2022/01/24 04:33:48;;;;;;;16.58;10.20;;;5.80;99.90;;;;;;5093094;28;20446;-73
2022/01/24 04:36:15;;;;;;;17.58;10.93;;;5.80;99.90;;;;;;5075181;28;20031;-74
2022/01/24 04:38:42;;;;;;;17.20;10.80;;;5.70;99.90;;;;;;5093203;28;20388;-73
2022/01/24 04:41:16;;;;;;;17.55;11.23;;;5.70;99.90;;;;;;5075152;28;20044;-73
2022/01/24 04:46:18;;;;;;;17.90;11.48;;;5.70;99.90;;;;;;5089256;28;20048;-73
2022/01/24 04:51:55;;;;;;;17.30;11.32;;;5.70;99.90;;;;;;5091871;28;20056;-73
2022/01/24 04:56:56;;;;;;;17.27;11.13;;;5.70;99.90;;;;;;5092606;28;20131;-73
2022/01/24 04:59:22;;;;;;;16.40;10.73;;;5.80;99.90;;;;;;5074998;28;20500;-74
2022/01/24 05:01:47;;;;;;;18.30;11.07;;;5.70;99.90;;;;;;5092731;28;20072;-74
2022/01/24 05:04:13;;;;;;;18.23;11.32;;;5.70;99.90;;;;;;5074888;28;20033;-74
2022/01/24 05:06:39;;;;;;;16.77;10.60;;;5.70;99.90;;;;;;5074809;28;20040;-74
2022/01/24 05:09:05;;;;;;;17.02;11.40;;;5.70;99.90;;;;;;5071522;28;20036;-74
2022/01/24 05:11:45;;;;;;;17.33;11.05;;;5.70;99.90;;;;;;5074644;28;20036;-74
2022/01/24 05:24:48;;;;;;;17.80;10.95;;;5.80;99.90;;;;;;5071756;28;20127;-73
2022/01/24 05:27:13;;;;;;;16.02;10.85;;;5.70;99.90;;;;;;5074502;28;20457;-73
2022/01/24 05:29:39;;;;;;;18.13;11.52;;;5.70;99.90;;;;;;5091426;28;20044;-73
2022/01/24 05:32:08;;;;;;;16.20;10.80;;;5.70;99.90;;;;;;5091825;28;20507;-73
2022/01/24 05:34:34;;;;;;;15.45;10.55;;;5.90;99.90;;;;;;5088504;28;20040;-73
2022/01/24 05:36:59;;;;;;;16.73;10.45;;;5.80;99.90;;;;;;5074184;28;20511;-73
2022/01/24 05:39:25;;;;;;;16.15;9.85;;;5.80;99.90;;;;;;5089219;28;20119;-73
2022/01/24 05:41:50;;;;;;;15.48;9.88;;;5.70;99.90;;;;;;5090569;28;20047;-73
2022/01/24 05:44:16;;;;;;;16.20;9.70;;;5.70;99.90;;;;;;5091385;28;20070;-73
2022/01/24 05:46:42;;;;;;;15.85;10.15;;;5.70;99.90;;;;;;5088080;28;20054;-73
2022/01/24 05:49:07;;;;;;;20.25;11.07;;;5.60;99.90;;;;;;5070503;28;20130;-73
2022/01/24 05:51:33;;;;;;;16.17;10.30;;;5.60;99.90;;;;;;5073180;28;20101;-73
2022/01/24 05:53:59;;;;;;;17.77;11.60;;;5.60;99.90;;;;;;5091235;28;20391;-73
2022/01/24 05:56:24;;;;;;;16.92;10.70;;;5.60;99.90;;;;;;5073321;28;20127;-73
2022/01/24 05:58:50;;;;;;;18.30;11.48;;;5.60;99.90;;;;;;5074458;28;20050;-73
2022/01/24 06:01:16;;;;;;;15.63;10.50;;;5.60;99.90;;;;;;5073668;28;20078;-73
2022/01/24 06:03:41;;;;;;;19.17;12.05;;;5.60;99.90;;;;;;5088977;28;20127;-73
2022/01/24 06:06:08;;;;;;;17.23;11.40;;;5.60;99.90;;;;;;5091542;28;20051;-73
2022/01/24 06:08:34;;;;;;;17.70;11.05;;;5.50;99.90;;;;;;5072532;28;20508;-73
2022/01/24 06:11:00;;;;;;;16.55;10.48;;;5.60;99.90;;;;;;5073370;28;20047;-73
2022/01/24 06:13:26;;;;;;;18.85;11.77;;;5.60;99.90;;;;;;5089257;28;20040;-73
2022/01/24 06:15:52;;;;;;;15.98;10.30;;;5.60;99.90;;;;;;5090577;28;20575;-73
2022/01/24 06:18:18;;;;;;;16.30;11.10;;;5.60;99.90;;;;;;5073430;28;20148;-73
2022/01/24 06:20:44;;;;;;;16.88;10.93;;;5.60;99.90;;;;;;5088405;28;20043;-73
2022/01/24 06:23:17;;;;;;;17.60;11.02;;;5.60;99.90;;;;;;5091228;28;20040;-73
2022/01/24 06:25:43;;;;;;;18.25;10.85;;;5.60;99.90;;;;;;5073684;28;20154;-73
2022/01/24 06:28:09;;;;;;;16.17;10.98;;;5.60;99.90;;;;;;5074044;28;20043;-73
2022/01/24 06:30:35;;;;;;;16.92;10.68;;;5.40;99.90;;;;;;5090508;28;20404;-73
2022/01/24 06:33:00;;;;;;;16.90;10.73;;;5.40;99.90;;;;;;5074142;28;20119;-73
2022/01/24 06:35:26;;;;;;;14.73;10.20;;;5.50;99.90;;;;;;5089886;28;20449;-73
2022/01/24 06:37:51;;;;;;;16.40;10.00;;;5.50;99.90;;;;;;5090532;28;20039;-73
2022/01/24 06:40:17;;;;;;;16.17;10.40;;;5.50;99.90;;;;;;5090021;28;20044;-73
2022/01/24 06:42:42;;;;;;;15.80;10.10;;;5.50;99.90;;;;;;5090839;28;20493;-73
2022/01/24 06:45:09;;;;;;;15.98;10.63;;;5.50;99.90;;;;;;5073630;28;20066;-73
2022/01/24 06:47:35;;;;;;;15.23;10.23;;;5.50;99.90;;;;;;5072864;28;20043;-73
2022/01/24 06:50:01;;;;;;;15.38;9.95;;;5.40;99.90;;;;;;5088889;28;20048;-73
2022/01/24 06:52:27;;;;;;;14.68;10.20;;;5.40;99.90;;;;;;5070427;28;20066;-73
2022/01/24 06:54:52;;;;;;;15.45;10.27;;;5.40;99.90;;;;;;5072231;28;20113;-73
2022/01/24 06:57:18;;;;;;;15.57;10.00;;;5.40;99.90;;;;;;5090242;28;20186;-73
2022/01/24 06:59:45;;;;;;;15.57;10.30;;;5.40;99.90;;;;;;5074075;28;20043;-73
2022/01/24 07:02:12;;;;;;;15.02;9.73;;;5.30;99.90;;;;;;5071725;28;20115;-73
2022/01/24 07:04:39;;;;;;;18.80;10.13;;;5.40;99.90;;;;;;5092690;28;20048;-73
2022/01/24 07:07:08;;;;;;;16.10;10.40;;;5.40;99.90;;;;;;5091286;28;20054;-73
2022/01/24 07:09:34;;;;;;;16.30;10.35;;;5.40;99.90;;;;;;5075684;28;20040;-73
2022/01/24 07:11:59;;;;;;;18.58;10.77;;;5.40;99.90;;;;;;5074703;28;20036;-73
2022/01/24 07:14:25;;;;;;;16.10;10.90;;;5.40;99.90;;;;;;5092077;28;20093;-73
2022/01/24 07:19:23;;;;;;;17.13;11.73;;;5.50;99.90;;;;;;5092776;28;20051;-73
2022/01/24 07:21:49;;;;;;;17.95;10.85;;;5.50;99.90;;;;;;5075620;28;20498;-73
2022/01/24 07:24:15;;;;;;;16.35;10.73;;;5.50;99.90;;;;;;5077795;28;20076;-73
2022/01/24 07:26:41;;;;;;;16.58;11.15;;;5.50;99.90;;;;;;5074607;28;20036;-73
2022/01/24 07:29:06;;;;;;;16.15;10.20;;;5.50;99.90;;;;;;5075543;28;20051;-73
2022/01/24 07:31:32;;;;;;;17.90;11.40;;;5.50;99.90;;;;;;5075590;28;20040;-73
2022/01/24 07:33:58;;;;;;;17.67;11.85;;;5.40;99.90;;;;;;5093102;28;20552;-73
2022/01/24 07:36:24;;;;;;;17.08;11.70;;;5.40;99.90;;;;;;5092271;28;20124;-73
2022/01/24 07:38:50;;;;;;;19.00;12.60;;;5.40;99.90;;;;;;5075948;28;20040;-74
2022/01/24 07:41:22;;;;;;;19.52;12.43;;;5.40;99.90;;;;;;5060509;28;20093;-73
2022/01/24 07:43:48;;;;;;;;;;;5.40;99.90;;;;;;5093334;28;20154;-73
2022/01/24 07:46:14;;;;;;;18.60;11.55;;;5.60;99.90;;;;;;5093868;28;19955;-73
2022/01/24 07:48:39;;;;;;;18.85;12.48;;;5.60;99.90;;;;;;5091016;28;20043;-73
2022/01/24 07:51:06;;;;;;;18.23;11.65;;;5.60;99.90;;;;;;5094472;28;20423;-73
2022/01/24 07:53:31;;;;;;;18.77;12.18;;;5.60;99.90;;;;;;5090392;28;20040;-73
2022/01/24 07:55:57;;;;;;;18.58;12.20;;;5.50;99.90;;;;;;5093006;28;20044;-73
2022/01/24 07:58:23;;;;;;;20.45;13.23;;;5.50;99.90;;;;;;5089236;28;20127;-73
2022/01/24 08:00:49;;;;;;;21.45;14.10;;;5.60;99.90;;;;;;5073303;28;20037;-73
2022/01/24 08:03:15;;;;;;;20.65;14.15;;;5.50;99.90;;;;;;5061201;28;20510;-73
2022/01/24 08:05:41;;;;;;;19.02;12.77;;;5.50;99.90;;;;;;5073680;28;20135;-74
2022/01/24 08:08:07;;;;;;;21.85;13.48;;;5.40;99.90;;;;;;5058897;28;20087;-73
2022/01/24 08:10:33;;;;;;;21.50;13.45;;;5.40;99.90;;;;;;5091948;28;20111;-73
2022/01/24 08:12:59;;;;;;;23.20;13.15;;;5.40;99.90;;;;;;5091628;28;20040;-73
2022/01/24 08:15:24;;;;;;;20.98;12.90;;;5.40;99.90;;;;;;5087565;28;20373;-74
2022/01/24 08:17:50;;;;;;;21.75;13.43;;;5.40;99.90;;;;;;5092219;28;20109;-74
2022/01/24 08:20:16;;;;;;;21.73;14.13;;;5.40;99.90;;;;;;5075898;28;20040;-73
2022/01/24 08:22:43;;;;;;;21.13;13.73;;;5.40;99.90;;;;;;5075523;28;20036;-74
2022/01/24 08:25:10;;;;;;;21.63;13.05;;;5.40;99.90;;;;;;5091082;28;20032;-74
2022/01/24 08:27:36;;;;;;;20.60;13.25;;;5.40;99.90;;;;;;5089092;28;20442;-74
2022/01/24 08:30:14;;;;;;;21.38;13.85;;;5.50;99.90;;;;;;5091038;28;20044;-73
2022/01/24 08:32:40;;;;;;;24.40;14.38;;;5.40;99.90;;;;;;5092256;28;20066;-74
2022/01/24 08:35:07;;;;;;;25.42;14.80;;;5.40;99.90;;;;;;5093069;28;20481;-74
2022/01/24 08:37:33;;;;;;;24.35;15.25;;;5.40;99.90;;;;;;5075045;28;20032;-73
2022/01/24 08:39:59;;;;;;;23.65;14.70;;;5.40;99.90;;;;;;5076164;28;20044;-74
2022/01/24 08:47:22;;;;;;;25.35;15.40;;;5.40;99.90;;;;;;5091958;28;20619;-74
2022/01/24 08:49:48;;;;;;;23.33;14.73;;;5.40;99.90;;;;;;5092345;28;20062;-74
2022/01/24 08:52:14;;;;;;;21.98;13.75;;;5.40;99.90;;;;;;5074617;28;20032;-74
2022/01/24 08:54:40;;;;;;;22.77;13.98;;;5.40;99.90;;;;;;5092818;28;20649;-74
2022/01/24 08:57:05;;;;;;;23.63;14.32;;;5.50;99.90;;;;;;5074441;28;20040;-74
2022/01/24 08:59:32;;;;;;;22.92;14.27;;;5.40;99.90;;;;;;5074863;28;20226;-74
2022/01/24 09:01:58;;;;;;;21.73;14.40;;;5.40;99.90;;;;;;5074125;28;20045;-74
2022/01/24 09:04:24;;;;;;;23.17;15.20;;;5.50;99.90;;;;;;5092252;28;20392;-74
2022/01/24 09:06:50;;;;;;;27.20;15.63;;;5.40;99.90;;;;;;5091573;28;20043;-74
2022/01/24 09:09:16;;;;;;;25.90;15.05;;;5.40;99.90;;;;;;5087740;28;20047;-74
2022/01/24 09:11:42;;;;;;;28.13;15.75;;;5.40;99.90;;;;;;5091375;28;20036;-74
2022/01/24 09:14:09;;;;;;;28.17;16.63;;;5.50;99.90;;;;;;5074589;28;20067;-74
2022/01/24 09:16:36;;;;;;;29.98;16.80;;;5.50;99.90;;;;;;5061184;28;20455;-74
2022/01/24 09:19:03;;;;;;;28.33;16.67;;;5.50;99.90;;;;;;5090309;28;20040;-74
2022/01/24 09:21:29;;;;;;;27.00;15.27;;;5.50;99.90;;;;;;5091681;28;20093;-74
2022/01/24 09:23:55;;;;;;;29.70;16.65;;;5.60;99.90;;;;;;5091491;28;20047;-74
2022/01/24 09:26:21;;;;;;;25.92;15.70;;;5.60;99.90;;;;;;5073730;28;20039;-74
2022/01/24 09:28:47;;;;;;;26.25;16.20;;;5.60;99.90;;;;;;5089691;28;20102;-74
2022/01/24 09:31:13;;;;;;;27.80;16.13;;;5.60;99.90;;;;;;5091898;28;20401;-74
2022/01/24 09:33:39;;;;;;;29.73;16.98;;;5.60;99.90;;;;;;5089920;28;20619;-73
2022/01/24 09:36:05;;;;;;;37.63;21.38;;;5.60;99.90;;;;;;5091793;28;20094;-74
2022/01/24 09:38:33;;;;;;;43.42;24.45;;;5.60;99.90;;;;;;5073220;28;20051;-73
2022/01/24 09:41:01;;;;;;;48.03;26.13;;;5.70;99.90;;;;;;5091023;28;20050;-74
2022/01/24 09:43:27;;;;;;;48.30;25.77;;;5.80;99.90;;;;;;5074457;28;20047;-74
2022/01/24 09:45:53;;;;;;;48.28;26.30;;;5.80;99.90;;;;;;5073361;28;20040;-73
2022/01/24 09:48:19;;;;;;;30.73;16.73;;;5.80;99.90;;;;;;5073177;28;20396;-79
2022/01/24 09:50:45;;;;;;;49.47;27.52;;;5.80;99.90;;;;;;5088412;28;20117;-81
2022/01/24 09:53:13;;;;;;;50.45;27.27;;;5.80;99.90;;;;;;5073028;28;20081;-82
2022/01/24 09:55:39;;;;;;;54.78;29.42;;;5.90;99.90;;;;;;5073590;28;20032;-80
2022/01/24 09:58:04;;;;;;;51.13;28.90;;;5.90;99.90;;;;;;5074002;28;20032;-81
2022/01/24 10:00:30;;;;;;;59.28;29.90;;;5.90;99.90;;;;;;5073268;28;20122;-73
2022/01/24 10:02:56;;;;;;;54.72;30.70;;;5.90;99.90;;;;;;5091241;28;20036;-73
2022/01/24 10:05:26;;;;;;;54.78;30.77;;;5.90;99.90;;;;;;5055930;28;20075;-74
2022/01/24 10:07:58;;;;;;;54.80;31.02;;;6.00;99.90;;;;;;5080485;28;20047;-73
2022/01/24 10:10:45;;;;;;;54.33;30.08;;;6.00;99.90;;;;;;5073017;28;20450;-74
2022/01/24 10:16:35;;;;;;;54.92;30.10;;;6.00;99.90;;;;;;5090274;28;20036;-73
2022/01/24 10:19:15;;;;;;;54.25;30.23;;;6.00;99.90;;;;;;5090243;28;20032;-74
2022/01/24 10:21:41;;;;;;;56.47;30.02;;;6.00;99.90;;;;;;5089439;28;20492;-73
2022/01/24 10:24:09;;;;;;;54.92;29.73;;;5.90;99.90;;;;;;5072031;28;20074;-73
2022/01/24 10:26:34;;;;;;;52.25;27.52;;;6.00;99.90;;;;;;5089456;28;20093;-73
2022/01/24 10:29:00;;;;;;;55.15;30.27;;;6.10;99.90;;;;;;5072675;28;20462;-73
2022/01/24 10:31:29;;;;;;;59.00;31.90;;;6.00;99.90;;;;;;5074163;28;20040;-73
2022/01/24 10:36:45;;;;;;;54.83;30.65;;;5.80;99.90;;;;;;5089910;28;20699;-73
2022/01/24 10:39:14;;;;;;;56.08;30.98;;;5.80;99.90;;;;;;5089566;28;20044;-74
2022/01/24 10:41:58;;;;;;;59.30;31.88;;;5.70;99.90;;;;;;5074334;28;20047;-74
2022/01/24 10:44:27;;;;;;;54.15;30.55;;;5.70;99.90;;;;;;5053508;28;20062;-73
2022/01/24 10:47:08;;;;;;;55.83;30.55;;;5.70;99.90;;;;;;5058270;28;20105;-73
2022/01/24 10:49:34;;;;;;;63.97;32.25;;;5.70;99.90;;;;;;5089273;28;20055;-73
2022/01/24 10:52:17;;;;;;;60.80;33.78;;;5.80;99.90;;;;;;5070236;28;20044;-73
2022/01/24 10:54:43;;;;;;;59.75;32.10;;;5.70;99.90;;;;;;5088522;28;20028;-73
2022/01/24 10:57:18;;;;;;;61.60;34.80;;;5.70;99.90;;;;;;5089540;28;20636;-73
2022/01/24 10:59:44;;;;;;;55.65;30.73;;;5.70;99.90;;;;;;5072104;28;20558;-73
2022/01/24 11:02:15;;;;;;;63.60;35.03;;;5.90;99.90;;;;;;5074153;28;20075;-73
2022/01/24 11:04:41;;;;;;;57.55;32.65;;;5.90;99.90;;;;;;5072056;28;20047;-74
2022/01/24 11:07:06;;;;;;;59.75;33.85;;;5.80;99.90;;;;;;5081406;28;20028;-74
2022/01/24 11:09:37;;;;;;;54.78;31.75;;;5.80;99.90;;;;;;5060068;28;20119;-73
2022/01/24 11:12:10;;;;;;;51.05;29.95;;;5.90;99.90;;;;;;5072782;28;20408;-73
2022/01/24 11:14:36;;;;;;;55.47;32.20;;;6.00;99.90;;;;;;5070865;28;20504;-74
2022/01/24 11:17:05;;;;;;;56.00;31.10;;;6.00;99.90;;;;;;5072085;28;20076;-73
2022/01/24 11:19:38;;;;;;;54.08;31.80;;;6.10;99.90;;;;;;5087803;28;20044;-74
2022/01/24 11:22:06;;;;;;;53.05;31.63;;;6.10;99.90;;;;;;5072353;28;20042;-74
2022/01/24 11:24:43;;;;;;;52.58;31.45;;;6.10;99.90;;;;;;5090615;28;20043;-73
2022/01/24 11:27:09;;;;;;;46.35;29.83;;;6.10;99.90;;;;;;5068285;28;20437;-74
2022/01/24 11:29:37;;;;;;;52.90;30.73;;;6.10;99.90;;;;;;5081533;28;20513;-73
2022/01/24 11:32:31;;;;;;;45.00;27.38;;;6.10;99.90;;;;;;5087484;28;20078;-74
2022/01/24 11:34:58;;;;;;;43.72;27.27;;;6.10;99.90;;;;;;5072683;28;20489;-74
2022/01/24 11:37:41;;;;;;;41.03;25.67;;;6.10;99.90;;;;;;5089422;28;20432;-74
2022/01/24 11:40:17;;;;;;;42.88;28.67;;;6.20;99.90;;;;;;5088794;28;20036;-74
2022/01/24 11:42:46;;;;;;;44.88;28.77;;;6.10;99.90;;;;;;5089613;28;20085;-74
2022/01/24 11:45:18;;;;;;;42.90;27.60;;;5.90;99.90;;;;;;5089820;28;20044;-73
2022/01/24 11:47:46;;;;;;;45.20;28.48;;;5.90;99.90;;;;;;5089106;28;20047;-74
2022/01/24 11:50:42;;;;;;;41.90;24.10;;;5.80;99.90;;;;;;5072235;28;20055;-73
2022/01/24 11:53:29;;;;;;;40.15;27.10;;;6.20;99.90;;;;;;5060215;28;20127;-73
2022/01/24 11:55:55;;;;;;;43.78;27.02;;;6.10;99.90;;;;;;5076459;28;20043;-74
2022/01/24 11:58:27;;;;;;;43.45;27.35;;;6.00;99.90;;;;;;5075795;28;20042;-74
2022/01/24 12:00:55;;;;;;;43.17;28.27;;;5.90;99.90;;;;;;5092803;28;20050;-74
2022/01/24 12:03:26;;;;;;;43.00;27.48;;;5.80;99.90;;;;;;5092177;28;20040;-74
2022/01/24 12:05:53;;;;;;;44.93;28.13;;;5.90;99.90;;;;;;5074542;28;20519;-74
2022/01/24 12:08:32;;;;;;;42.33;26.33;;;5.80;99.90;;;;;;5076003;28;20747;-74
2022/01/24 12:11:22;;;;;;;44.13;29.40;;;5.80;99.90;;;;;;5075763;28;20043;-74
2022/01/24 12:14:01;;;;;;;45.13;29.30;;;5.70;99.90;;;;;;5075179;28;20039;-74
2022/01/24 12:16:36;;;;;;;45.55;29.27;;;5.60;99.90;;;;;;5074406;28;20370;-74
2022/01/24 12:19:03;;;;;;;43.72;26.27;;;5.60;99.90;;;;;;5076449;28;20036;-73
2022/01/24 12:21:31;;;;;;;44.92;27.40;;;5.80;99.90;;;;;;5073621;28;20056;-73
2022/01/24 12:24:02;;;;;;;41.05;25.40;;;5.80;99.90;;;;;;5091473;28;20047;-73
2022/01/24 12:26:44;;;;;;;41.72;27.92;;;5.90;99.90;;;;;;5075148;28;20122;-73
2022/01/24 12:29:11;;;;;;;37.78;23.75;;;5.90;99.90;;;;;;5093441;28;20090;-73
2022/01/24 12:31:52;;;;;;;39.33;26.15;;;5.70;99.90;;;;;;5074315;28;20079;-73
2022/01/24 12:34:22;;;;;;;38.42;24.98;;;5.60;99.90;;;;;;5074509;28;20039;-73
2022/01/24 12:37:00;;;;;;;38.92;26.15;;;5.70;99.90;;;;;;5074172;28;20037;-73
2022/01/24 12:39:34;;;;;;;38.25;24.00;;;5.60;99.90;;;;;;5075779;28;20043;-73
2022/01/24 12:42:15;;;;;;;35.90;23.88;;;5.70;99.90;;;;;;5091611;28;20082;-73
2022/01/24 12:47:10;;;;;;;40.17;25.83;;;5.60;99.90;;;;;;5092740;28;20054;-73
2022/01/24 12:49:36;;;;;;;34.67;23.40;;;5.60;99.90;;;;;;5090823;28;20052;-73
2022/01/24 12:52:04;;;;;;;33.28;21.33;;;5.50;99.90;;;;;;5091941;28;20086;-73
2022/01/24 12:54:31;;;;;;;35.55;22.15;;;5.50;99.90;;;;;;5089792;28;20400;-73
2022/01/24 12:56:59;;;;;;;31.80;21.73;;;5.60;99.90;;;;;;5093693;28;20044;-74
2022/01/24 12:59:25;;;;;;;33.92;22.27;;;5.80;99.90;;;;;;5075151;28;20055;-73
2022/01/24 13:01:54;;;;;;;35.38;22.58;;;5.70;99.90;;;;;;5092275;28;20040;-73
2022/01/24 13:04:39;;;;;;;35.28;21.77;;;5.60;99.90;;;;;;5074160;28;20075;-73
2022/01/24 13:07:07;;;;;;;32.80;21.70;;;5.60;99.90;;;;;;5091253;28;20055;-73
2022/01/24 13:09:34;;;;;;;35.47;22.55;;;5.60;99.90;;;;;;5074260;28;20074;-73
2022/01/24 13:12:07;;;;;;;34.03;20.67;;;5.60;99.90;;;;;;5090394;28;20515;-73
2022/01/24 13:14:45;;;;;;;33.28;22.23;;;5.70;99.90;;;;;;5089999;28;20669;-73
2022/01/24 13:22:50;;;;;;;33.50;21.92;;;5.80;99.90;;;;;;5091636;28;20497;-73
2022/01/24 13:25:30;;;;;;;35.10;21.45;;;5.70;99.90;;;;;;5088606;28;20044;-73
2022/01/24 13:28:01;;;;;;;32.67;18.73;;;6.00;99.90;;;;;;5092271;28;20043;-73
2022/01/24 13:30:32;;;;;;;32.20;20.88;;;6.10;99.90;;;;;;5074285;28;20503;-73
2022/01/24 13:32:59;;;;;;;33.88;22.35;;;6.00;99.90;;;;;;5091539;28;20080;-73
2022/01/24 13:35:34;;;;;;;32.08;20.83;;;5.90;99.90;;;;;;5090079;28;20079;-73
2022/01/24 13:38:06;;;;;;;34.05;22.05;;;6.10;99.90;;;;;;5091400;28;20049;-73
2022/01/24 13:40:32;;;;;;;35.38;21.88;;;5.80;99.90;;;;;;5088653;28;20534;-73
2022/01/24 13:42:58;;;;;;;32.40;21.13;;;5.80;99.90;;;;;;5091723;28;20048;-73
2022/01/24 13:45:24;;;;;;;37.20;23.25;;;5.90;99.90;;;;;;5073558;28;20137;-73
2022/01/24 13:47:58;;;;;;;35.60;22.83;;;5.80;99.90;;;;;;5091856;28;20400;-73
2022/01/24 13:50:24;;;;;;;34.67;21.80;;;5.90;99.90;;;;;;5073813;28;20054;-73
2022/01/24 13:52:51;;;;;;;35.50;22.42;;;5.80;99.90;;;;;;5091267;28;20101;-73
2022/01/24 13:55:18;;;;;;;33.13;21.83;;;5.70;99.90;;;;;;5090678;28;20032;-73
2022/01/24 13:57:49;;;;;;;31.88;20.65;;;5.60;99.90;;;;;;5074654;28;20032;-73
2022/01/24 14:00:20;;;;;;;33.20;22.25;;;5.50;99.90;;;;;;5070943;28;20040;-73
2022/01/24 14:02:46;;;;;;;34.10;22.02;;;5.40;99.90;;;;;;5074754;28;20049;-73
2022/01/24 14:05:11;;;;;;;34.53;23.02;;;5.40;99.90;;;;;;5072420;28;20540;-73
2022/01/24 14:07:41;;;;;;;32.75;20.88;;;5.40;99.90;;;;;;5089779;28;20628;-73
2022/01/24 14:10:13;;;;;;;36.40;24.00;;;5.40;99.90;;;;;;5088594;28;20420;-73
2022/01/24 14:12:45;;;;;;;34.20;23.25;;;5.50;99.90;;;;;;5089603;28;20043;-73
2022/01/24 14:15:25;;;;;;;33.63;22.08;;;5.40;99.90;;;;;;5072948;28;20043;-73
2022/01/24 14:20:51;;;;;;;35.58;23.63;;;5.40;99.90;;;;;;5071205;28;20105;-73
2022/01/24 14:23:24;;;;;;;38.30;23.77;;;5.40;99.90;;;;;;5087253;28;20539;-73
2022/01/24 14:25:50;;;;;;;33.55;22.38;;;5.40;99.90;;;;;;5090515;28;20423;-73
2022/01/24 14:28:18;;;;;;;37.97;23.75;;;5.30;99.90;;;;;;5065239;28;20112;-73
2022/01/24 14:30:46;;;;;;;34.75;23.20;;;5.40;99.90;;;;;;5088342;28;20070;-73
2022/01/24 14:33:18;;;;;;;33.22;22.42;;;5.30;99.90;;;;;;5059866;28;20101;-73
2022/01/24 14:36:09;;;;;;;33.78;23.15;;;5.20;99.90;;;;;;5087474;28;20092;-73
2022/01/24 14:38:44;;;;;;;33.92;22.20;;;5.30;99.90;;;;;;5070530;28;20454;-73
2022/01/24 14:41:17;;;;;;;35.97;22.25;;;5.30;99.90;;;;;;5089927;28;20039;-73
2022/01/24 14:46:39;;;;;;;38.05;23.15;;;5.30;99.90;;;;;;5080359;28;20044;-73
2022/01/24 14:49:11;;;;;;;33.65;22.98;;;5.30;99.90;;;;;;5088396;28;20107;-73
2022/01/24 14:51:43;;;;;;;34.07;23.00;;;5.30;99.90;;;;;;5088948;28;20051;-74
2022/01/24 14:54:21;;;;;;;35.85;23.85;;;5.30;99.90;;;;;;5090856;28;20032;-74